Time;durP1;ratioP1;P1;durP2;ratioP2;P2;SDS_P1;SDS_P2;PMS_P1;PMS_P2;Temp;Humidity;BMP_temperature;BMP_pressure;BME280_temperature;BME280_humidity;BME280_pressure;Samples;Min_cycle;Max_cycle;Signal;HPM_P1;HPM_P2
2021/01/14 00:05:01;;;;;;;37.73;16.60;;;;;;;1.11;87.93;99240.06;4978424;59;21270;-87
2021/01/14 00:10:09;;;;;;;27.87;13.57;;;;;;;1.17;88.02;99245.76;4978600;59;21313;-88
2021/01/14 00:15:17;;;;;;;18.20;8.80;;;;;;;1.16;87.21;99244.55;4934923;59;21279;-87
2021/01/14 00:20:23;;;;;;;14.33;7.90;;;;;;;1.09;86.99;99240.15;4939877;60;21552;-87
2021/01/14 00:25:28;;;;;;;15.03;8.40;;;;;;;1.03;87.08;99251.78;4862555;58;1130097;-87
2021/01/14 00:30:34;;;;;;;15.33;9.67;;;;;;;0.97;87.18;99253.90;4962208;58;1134191;-88
2021/01/14 00:35:40;;;;;;;13.30;8.67;;;;;;;0.97;87.05;99264.31;5125283;58;21339;-88
2021/01/14 00:40:45;;;;;;;12.33;8.43;;;;;;;0.95;86.98;99265.70;5112380;57;21266;-88
2021/01/14 00:45:51;;;;;;;17.63;9.67;;;;;;;0.93;87.12;99274.52;5107041;58;21274;-87
2021/01/14 00:50:56;;;;;;;17.37;10.20;;;;;;;0.92;87.55;99282.79;5098936;58;21146;-88
2021/01/14 00:56:02;;;;;;;17.50;11.90;;;;;;;0.95;87.32;99280.02;5007860;57;1132239;-87
2021/01/14 01:01:08;;;;;;;21.93;11.47;;;;;;;0.95;87.12;99287.83;5003807;58;1136240;-87
2021/01/14 01:06:13;;;;;;;22.63;12.40;;;;;;;0.90;87.00;99300.75;5097169;58;21417;-87
2021/01/14 01:11:27;;;;;;;36.93;19.70;;;;;;;0.87;87.23;99303.52;5083167;57;21088;-87
2021/01/14 01:16:33;;;;;;;23.27;12.93;;;;;;;0.83;87.22;99309.82;5106587;58;21261;-88
2021/01/14 01:21:43;;;;;;;22.93;12.60;;;;;;;0.82;87.09;99315.95;5106969;58;21281;-88
2021/01/14 01:26:53;;;;;;;19.70;11.20;;;;;;;0.80;87.15;99319.09;5107376;57;21611;-88
2021/01/14 01:31:58;;;;;;;18.30;11.47;;;;;;;0.84;87.25;99325.81;5107921;58;21181;-88
2021/01/14 01:37:04;;;;;;;10.93;8.20;;;;;;;0.80;87.19;99334.71;5124613;58;21127;-88
2021/01/14 01:42:10;;;;;;;16.60;9.13;;;;;;;0.80;87.17;99342.52;5131084;57;21146;-88
2021/01/14 01:47:17;;;;;;;13.53;8.33;;;;;;;0.86;87.58;99342.19;5129350;58;21158;-88
2021/01/14 01:52:23;;;;;;;13.30;9.30;;;;;;;0.93;87.92;99348.70;5130882;57;21134;-88
2021/01/14 01:57:28;;;;;;;13.13;9.13;;;;;;;0.94;87.57;99355.59;5123781;58;21167;-87
2021/01/14 02:02:34;;;;;;;23.73;10.60;;;;;;;0.94;87.23;99360.33;5111972;58;21079;-87
2021/01/14 02:07:44;;;;;;;38.87;14.90;;;;;;;0.94;87.26;99367.30;5030232;57;1132301;-87
2021/01/14 02:13:18;;;;;;;37.53;15.30;;;;;;;0.93;87.19;99376.87;5027310;57;1136240;-88
2021/01/14 02:18:24;;;;;;;22.73;11.73;;;;;;;0.89;87.34;99379.76;4906559;59;1136288;-87
2021/01/14 02:24:12;;;;;;;22.40;12.97;;;;;;;0.89;87.14;99391.01;4887911;60;21157;-87
2021/01/14 02:29:18;;;;;;;22.23;14.40;;;;;;;0.87;87.16;99402.42;4833362;60;21558;-87
2021/01/14 02:34:24;;;;;;;24.07;14.90;;;;;;;0.92;87.49;99409.49;4777253;61;21208;-87
2021/01/14 02:39:29;;;;;;;30.20;15.80;;;;;;;0.90;87.58;99420.02;4778285;61;21489;-87
2021/01/14 02:44:35;;;;;;;56.17;23.13;;;;;;;0.91;87.39;99425.61;4778326;61;21512;-87
2021/01/14 02:49:48;;;;;;;55.47;24.70;;;;;;;0.92;87.23;99429.86;4742957;61;1132431;-87
2021/01/14 02:54:56;;;;;;;46.95;20.97;;;;;;;0.93;87.34;99438.51;4853696;58;1136378;-87
2021/01/14 03:00:01;;;;;;;43.07;20.30;;;;;;;0.93;87.33;99445.02;4981296;59;1136153;-87
2021/01/14 03:05:07;;;;;;;40.50;21.73;;;;;;;0.89;87.15;99455.24;4919597;58;1141951;-87
2021/01/14 03:10:13;;;;;;;29.77;17.53;;;;;;;0.89;87.30;99462.59;4912368;57;1136161;-87
2021/01/14 03:15:19;;;;;;;26.80;16.43;;;;;;;0.88;87.49;99472.63;4955622;59;21175;-87
2021/01/14 03:20:25;;;;;;;39.83;25.10;;;;;;;0.85;87.48;99484.95;4971103;59;21576;-88
2021/01/14 03:25:30;;;;;;;39.87;22.73;;;;;;;0.81;87.34;99497.29;4973537;59;21136;-87
2021/01/14 03:30:36;;;;;;;35.00;19.73;;;;;;;0.79;87.32;99508.23;4935519;58;1132119;-87
2021/01/14 03:35:41;;;;;;;41.20;23.07;;;;;;;0.82;87.45;99514.58;4819936;59;1136158;-87
2021/01/14 03:40:47;;;;;;;48.73;25.97;;;;;;;0.79;87.55;99522.55;4894460;59;21202;-87
2021/01/14 03:45:52;;;;;;;44.77;24.40;;;;;;;0.80;87.49;99532.50;4801746;60;1132141;-87
2021/01/14 03:50:57;;;;;;;37.10;18.93;;;;;;;0.79;87.42;99547.73;4798955;59;1136506;-88
2021/01/14 03:56:04;;;;;;;47.23;22.27;;;;;;;0.80;87.42;99558.06;4784677;60;1136357;-87
2021/01/14 04:01:10;;;;;;;63.97;31.30;;;;;;;0.77;87.52;99575.59;4728139;60;1136392;-87
2021/01/14 04:06:16;;;;;;;79.50;37.23;;;;;;;0.76;87.64;99584.36;4801482;60;1136247;-87
2021/01/14 04:11:21;;;;;;;73.23;31.60;;;;;;;0.74;87.57;99589.64;4889467;60;21197;-87
2021/01/14 04:16:27;;;;;;;74.53;32.30;;;;;;;0.70;87.60;99608.92;4857561;61;21145;-87
2021/01/14 04:21:33;;;;;;;32.27;14.10;;;;;;;0.70;87.72;99632.34;4851771;60;21115;-87
2021/01/14 04:26:40;;;;;;;36.37;15.47;;;;;;;0.69;87.68;99641.07;4872157;60;21496;-87
2021/01/14 04:31:49;;;;;;;52.17;24.70;;;;;;;0.68;87.68;99656.30;5037380;58;21145;-87
2021/01/14 04:37:02;;;;;;;35.27;17.67;;;;;;;0.65;87.63;99661.20;5054373;58;21159;-87
2021/01/14 04:42:10;;;;;;;64.35;31.75;;;;;;;0.62;87.69;99669.61;5071017;58;21139;-87
2021/01/14 04:47:17;;;;;;;62.47;27.40;;;;;;;0.64;87.68;99681.63;5053499;58;21095;-87
2021/01/14 04:52:26;;;;;;;43.87;22.20;;;;;;;0.63;87.24;99692.11;5058970;58;21087;-87
2021/01/14 04:57:33;;;;;;;32.60;15.87;;;;;;;0.61;87.36;99699.17;4985914;58;1132152;-87
2021/01/14 05:02:57;;;;;;;46.13;23.90;;;;;;;0.60;87.40;99714.41;4963349;58;1136444;-87
2021/01/14 05:08:09;;;;;;;47.70;21.33;;;;;;;0.52;87.14;99725.17;4945186;58;1136489;-88
2021/01/14 05:13:15;;;;;;;41.50;20.68;;;;;;;0.53;87.20;99735.97;4988084;58;1136285;-87
2021/01/14 05:18:21;;;;;;;39.27;19.07;;;;;;;0.48;87.23;99737.09;4964888;58;1136171;-87
2021/01/14 05:23:28;;;;;;;43.07;20.80;;;;;;;0.47;87.30;99741.45;4966281;58;1136379;-87
2021/01/14 05:28:34;;;;;;;33.47;16.27;;;;;;;0.51;87.56;99761.66;4980163;58;1136311;-88
2021/01/14 05:33:39;;;;;;;40.50;20.63;;;;;;;0.55;87.44;99769.26;4861749;57;1136185;-87
2021/01/14 05:38:48;;;;;;;44.10;19.10;;;;;;;0.57;87.38;99779.13;4924823;58;1136324;-87
2021/01/14 05:43:57;;;;;;;46.87;23.57;;;;;;;0.56;87.48;99791.76;4864549;58;1136741;-88
2021/01/14 05:49:07;;;;;;;49.10;24.20;;;;;;;0.61;87.58;99804.55;4855605;58;1136649;-88
2021/01/14 05:54:13;;;;;;;42.17;21.97;;;;;;;0.66;87.46;99816.41;4927610;59;1134272;-87
2021/01/14 05:59:22;;;;;;;41.43;18.07;;;;;;;0.65;87.47;99826.43;4970001;58;21163;-87
2021/01/14 06:04:30;;;;;;;44.13;21.70;;;;;;;0.67;87.61;99836.31;4995886;58;21150;-87
2021/01/14 06:09:45;;;;;;;65.30;30.37;;;;;;;0.69;87.48;99853.16;4904352;59;1132234;-87
2021/01/14 06:14:50;;;;;;;117.73;49.03;;;;;;;0.72;87.48;99862.58;4953409;58;1134254;-87
2021/01/14 06:20:08;;;;;;;83.40;38.23;;;;;;;0.67;87.37;99866.69;4958047;59;1138597;-87
2021/01/14 06:25:14;;;;;;;46.97;22.50;;;;;;;0.68;87.34;99887.90;4839154;60;1136224;-87
2021/01/14 06:30:21;;;;;;;63.47;30.80;;;;;;;0.70;87.55;99899.08;4899746;57;1136430;-87
2021/01/14 06:35:28;;;;;;;54.87;25.90;;;;;;;0.69;87.50;99909.11;4943205;57;1136467;-87
2021/01/14 06:40:36;;;;;;;51.93;25.00;;;;;;;0.70;87.24;99921.20;4936476;57;1136326;-86
2021/01/14 06:45:51;;;;;;;58.13;28.37;;;;;;;0.68;87.20;99936.89;4943384;57;1136390;-88
2021/01/14 06:51:01;;;;;;;47.37;22.00;;;;;;;0.63;87.24;99953.16;4976270;57;1136194;-87
2021/01/14 06:56:09;;;;;;;63.65;33.23;;;;;;;0.65;87.19;99967.41;4925309;57;1136440;-87
2021/01/14 07:01:18;;;;;;;58.70;26.57;;;;;;;0.67;87.37;99976.83;4995851;57;1136173;-85
2021/01/14 07:06:30;;;;;;;61.00;26.87;;;;;;;0.65;87.15;99998.17;5040997;58;1136284;-86
2021/01/14 07:11:41;;;;;;;56.83;29.27;;;;;;;0.65;87.20;100004.68;4892563;58;1136505;-87
2021/01/14 07:16:52;;;;;;;64.20;28.60;;;;;;;0.62;87.10;100024.33;4936232;58;1138255;-85
2021/01/14 07:21:58;;;;;;;60.10;27.50;;;;;;;0.65;87.37;100035.06;4885455;57;1138475;-87
2021/01/14 07:27:05;;;;;;;73.80;29.70;;;;;;;0.69;87.17;100044.43;4966374;58;21202;-88
2021/01/14 07:32:10;;;;;;;86.40;38.25;;;;;;;0.70;87.02;100056.08;4892680;58;1134614;-88
2021/01/14 07:37:21;;;;;;;68.40;30.07;;;;;;;0.63;86.93;100069.41;4855754;58;1138532;-88
2021/01/14 07:42:34;;;;;;;65.37;27.90;;;;;;;0.63;87.04;100072.86;4814400;59;1138468;-88
2021/01/14 07:47:40;;;;;;;40.43;16.57;;;;;;;0.63;87.04;100072.86;4874908;58;1138569;-88
2021/01/14 07:52:49;;;;;;;63.83;27.80;;;;;;;0.60;86.78;100085.19;4797596;59;1138809;-88
2021/01/14 07:58:07;;;;;;;70.30;31.60;;;;;;;0.58;86.83;100096.11;4644872;60;1138742;-88
2021/01/14 08:03:15;;;;;;;69.45;29.42;;;;;;;0.65;87.03;100110.53;4835339;58;1138477;-88
2021/01/14 08:08:37;;;;;;;62.30;26.55;;;;;;;0.64;87.02;100111.44;4794139;59;1138425;-88
2021/01/14 08:14:18;;;;;;;61.50;26.63;;;;;;;0.63;86.95;100128.81;4846134;59;1138424;-88
2021/01/14 08:19:33;;;;;;;58.30;24.93;;;;;;;0.64;86.95;100136.16;4880584;58;1138354;-88
2021/01/14 08:24:54;;;;;;;68.57;27.30;;;;;;;0.62;86.89;100133.62;4927525;60;21305;-88
2021/01/14 08:30:15;;;;;;;72.93;34.10;;;;;;;0.62;87.00;100144.48;4931456;59;21450;-87
2021/01/14 08:35:27;;;;;;;58.00;26.80;;;;;;;0.64;86.57;100166.94;4965614;59;21155;-87
2021/01/14 08:40:36;;;;;;;51.57;22.77;;;;;;;0.66;86.64;100182.48;5061270;57;21173;-87
2021/01/14 08:45:51;;;;;;;42.57;21.07;;;;;;;0.68;86.78;100189.78;4895325;57;1134195;-87
2021/01/14 08:51:03;;;;;;;89.47;33.30;;;;;;;0.67;86.12;100198.49;4951958;57;1138464;-87
2021/01/14 08:56:17;;;;;;;105.40;40.00;;;;;;;0.60;85.88;100213.53;4979937;57;1138368;-86
2021/01/14 09:01:26;;;;;;;101.20;34.90;;;;;;;0.64;86.38;100220.28;4917744;57;1140506;-87
2021/01/14 09:06:38;;;;;;;66.20;29.40;;;;;;;0.70;86.35;100234.35;4916695;58;1140355;-88
2021/01/14 09:11:46;;;;;;;53.97;22.43;;;;;;;0.82;86.50;100249.05;4935130;57;1138453;-86
2021/01/14 09:16:52;;;;;;;55.77;22.93;;;;;;;0.92;86.46;100252.50;4916460;57;1138665;-86
2021/01/14 09:21:58;;;;;;;40.50;16.17;;;;;;;0.95;86.63;100252.38;4955875;58;1138279;-86
2021/01/14 09:27:05;;;;;;;58.63;27.13;;;;;;;0.99;85.80;100253.95;4916854;58;1138452;-93
2021/01/14 09:32:15;;;;;;;38.27;17.97;;;;;;;0.90;85.71;100263.92;4941680;58;1138313;-93
2021/01/14 09:37:22;;;;;;;43.00;22.10;;;;;;;0.84;85.57;100277.17;4909695;57;1138875;-94
2021/01/14 09:42:31;;;;;;;45.12;21.48;;;;;;;0.86;86.09;100276.66;4954459;57;1138262;-91
2021/01/14 09:47:56;;;;;;;35.33;17.90;;;;;;;0.91;86.20;100284.69;4964930;58;1136259;-93
2021/01/14 09:53:06;;;;;;;41.27;19.57;;;;;;;0.93;85.75;100289.80;5012217;58;21102;-94
2021/01/14 09:58:21;;;;;;;46.45;22.42;;;;;;;0.93;86.07;100290.64;4917872;57;1134366;-91
2021/01/14 10:03:28;;;;;;;35.05;17.23;;;;;;;0.94;85.76;100298.85;4901302;57;1138318;-95
2021/01/14 10:08:45;;;;;;;44.77;22.80;;;;;;;0.97;85.70;100297.88;4953251;58;21149;-93
2021/01/14 10:13:53;;;;;;;41.57;19.53;;;;;;;1.01;86.11;100301.61;4970118;58;1134085;-94
2021/01/14 10:19:15;;;;;;;46.47;18.40;;;;;;;1.04;85.85;100314.50;4973563;58;1136063;-92
2021/01/14 10:24:30;;;;;;;37.80;18.30;;;;;;;1.05;85.55;100316.66;4954677;57;1138619;-93
2021/01/14 10:29:38;;;;;;;37.70;19.33;;;;;;;1.01;85.48;100326.34;4917484;57;1138429;-92
2021/01/14 10:34:53;;;;;;;38.28;18.70;;;;;;;0.94;85.50;100346.17;5023722;57;1136270;-92
2021/01/14 10:40:04;;;;;;;40.70;18.53;;;;;;;0.97;85.66;100355.17;5023237;57;21130;-91
2021/01/14 10:45:12;;;;;;;26.40;14.65;;;;;;;0.99;85.74;100358.56;4958497;58;1134237;-89
2021/01/14 10:50:27;;;;;;;36.93;18.27;;;;;;;0.99;85.47;100369.82;4916770;58;1138397;-94
2021/01/14 10:55:34;;;;;;;25.17;12.53;;;;;;;1.11;85.99;100372.83;4927984;57;1138376;-91
2021/01/14 11:00:41;;;;;;;24.47;12.77;;;;;;;1.18;85.74;100377.73;4935380;57;1138260;-94
2021/01/14 11:05:58;;;;;;;29.23;13.87;;;;;;;1.24;85.52;100385.28;4916370;57;1138277;-91
2021/01/14 11:11:09;;;;;;;17.10;9.53;;;;;;;1.25;85.56;100392.19;4917116;57;1138250;-93
2021/01/14 11:16:18;;;;;;;27.67;13.63;;;;;;;1.24;85.26;100402.66;5012716;58;21153;-89
2021/01/14 11:21:35;;;;;;;31.12;15.20;;;;;;;1.15;85.20;100395.23;4936785;57;1134324;-88
2021/01/14 11:26:41;;;;;;;23.90;12.70;;;;;;;1.15;85.44;100400.00;4917654;58;1138398;-89
2021/01/14 11:32:37;;;;;;;42.50;18.73;;;;;;;1.12;85.21;100401.42;4934501;57;1138367;-89
2021/01/14 11:37:33;;;;;;;26.65;12.58;;;;;;;1.13;85.46;100400.96;4816331;59;1138440;-90
2021/01/14 11:42:39;;;;;;;35.70;19.60;;;;;;;1.12;85.27;100404.47;4793645;60;1138428;-89
2021/01/14 11:48:28;;;;;;;38.53;14.87;;;;;;;1.08;85.45;100407.65;4867007;59;1138536;-90
2021/01/14 11:53:36;;;;;;;45.07;18.67;;;;;;;1.04;85.23;100405.65;4817973;59;1138401;-89
2021/01/14 11:58:41;;;;;;;19.90;10.23;;;;;;;0.94;85.30;100402.15;4857917;59;1138218;-89
2021/01/14 12:03:47;;;;;;;36.80;18.17;;;;;;;0.89;85.49;100397.16;4805473;59;1138618;-88
2021/01/14 12:08:52;;;;;;;36.87;16.13;;;;;;;0.81;85.54;100402.25;4824384;60;1138295;-88
2021/01/14 12:13:58;;;;;;;53.13;22.57;;;;;;;0.83;85.74;100409.55;4937446;59;21168;-88
2021/01/14 12:19:14;;;;;;;33.63;17.30;;;;;;;0.82;85.78;100411.30;4958763;58;1134357;-88
2021/01/14 12:24:27;;;;;;;25.20;12.55;;;;;;;0.80;85.76;100420.08;4916010;59;1138395;-88
2021/01/14 12:29:32;;;;;;;21.03;10.10;;;;;;;0.76;85.70;100423.73;5011570;59;21196;-88
2021/01/14 12:34:38;;;;;;;33.57;15.93;;;;;;;0.77;85.83;100431.91;5012100;59;21436;-88
2021/01/14 12:39:46;;;;;;;36.40;17.17;;;;;;;0.75;85.91;100426.78;5008876;59;21223;-86
2021/01/14 12:45:16;;;;;;;35.70;17.13;;;;;;;0.84;86.21;100438.13;5014582;59;21195;-88
2021/01/14 12:50:22;;;;;;;31.43;14.30;;;;;;;0.87;86.11;100443.22;5015177;59;21101;-88
2021/01/14 12:55:28;;;;;;;39.77;18.77;;;;;;;0.88;86.02;100450.13;4994800;57;1134408;-92
2021/01/14 13:00:33;;;;;;;43.52;19.27;;;;;;;0.87;85.81;100454.09;4937254;57;1138921;-95
2021/01/14 13:05:39;;;;;;;36.37;16.23;;;;;;;0.91;85.93;100452.62;4938168;57;1138344;-96
2021/01/14 13:10:45;;;;;;;18.90;10.53;;;;;;;0.92;86.08;100459.94;4885051;57;1138402;-95
2021/01/14 13:22:24;;;;;;;53.03;24.70;;;;;;;0.94;86.21;100472.45;4935513;57;1138370;-94
2021/01/14 13:27:30;;;;;;;70.65;25.25;;;;;;;0.99;86.14;100480.49;4916142;57;1138378;-95
2021/01/14 13:32:36;;;;;;;66.37;26.67;;;;;;;1.01;86.22;100489.09;4995899;58;1136261;-92
2021/01/14 13:37:45;;;;;;;173.70;78.33;;;;;;;1.01;85.79;100493.00;5012707;59;21195;-95
2021/01/14 13:43:23;;;;;;;;;;;;;;;;;;;;;
2021/01/14 13:48:45;;;;;;;142.93;58.67;;;;;;;1.10;85.96;100508.71;4917733;59;21080;-95
2021/01/14 13:53:51;;;;;;;141.77;52.67;;;;;;;1.13;85.92;100515.11;4887977;59;1136338;-95
2021/01/14 13:58:59;;;;;;;123.43;54.70;;;;;;;1.16;85.58;100537.14;4832728;59;1140725;-96
2021/01/14 14:04:07;;;;;;;74.07;31.90;;;;;;;1.18;85.72;100531.42;4790965;59;1140766;-96
2021/01/14 14:09:16;;;;;;;80.47;35.33;;;;;;;1.13;85.35;100533.34;4844729;60;1138444;-95
2021/01/14 14:14:22;;;;;;;70.93;28.30;;;;;;;1.12;85.31;100530.80;4873711;61;21520;-95
2021/01/14 14:19:27;;;;;;;77.30;30.33;;;;;;;1.05;85.03;100540.62;4720468;62;21187;-95
2021/01/14 14:24:33;;;;;;;58.80;24.57;;;;;;;1.01;85.40;100550.30;4810005;60;1134374;-94
2021/01/14 14:29:39;;;;;;;97.63;43.37;;;;;;;0.98;85.08;100555.61;4788281;60;1138911;-96
2021/01/14 14:34:44;;;;;;;69.43;28.37;;;;;;;0.93;85.19;100571.84;4818485;59;1138765;-94
2021/01/14 14:39:50;;;;;;;52.58;25.85;;;;;;;0.90;85.24;100580.25;4785592;60;1138477;-95
2021/01/14 14:44:57;;;;;;;72.77;39.10;;;;;;;0.90;85.08;100589.36;4911844;59;1138460;-95
2021/01/14 14:50:05;;;;;;;73.45;41.65;;;;;;;0.92;85.16;100600.09;4880300;59;1138532;-93
2021/01/14 14:55:47;;;;;;;74.27;35.17;;;;;;;0.83;85.08;100597.84;4888223;58;1138814;-94
2021/01/14 15:00:54;;;;;;;67.93;27.63;;;;;;;0.84;85.15;100606.50;4867710;58;1138409;-94
2021/01/14 15:06:01;;;;;;;102.77;42.70;;;;;;;0.88;85.20;100611.55;4879955;59;1138336;-92
2021/01/14 15:11:06;;;;;;;110.87;41.70;;;;;;;0.88;85.38;100621.96;4800573;60;1141069;-94
2021/01/14 15:16:12;;;;;;;125.90;49.43;;;;;;;0.90;85.17;100621.91;4837975;58;1141278;-93
2021/01/14 15:21:17;;;;;;;106.00;45.37;;;;;;;0.88;85.10;100629.77;5045497;57;1138410;-93
2021/01/14 15:26:23;;;;;;;91.42;37.05;;;;;;;0.83;84.94;100639.49;4935837;58;1140552;-93
2021/01/14 15:31:30;;;;;;;79.23;33.20;;;;;;;0.78;85.04;100644.45;4923023;57;1138292;-93
2021/01/14 15:36:36;;;;;;;93.50;39.83;;;;;;;0.81;85.30;100649.11;4977851;58;1138335;-93
2021/01/14 15:41:41;;;;;;;119.20;47.20;;;;;;;0.79;85.05;100646.16;4966924;57;1138311;-95
2021/01/14 15:46:47;;;;;;;123.23;47.30;;;;;;;0.78;85.24;100652.27;5119097;57;21150;-94
2021/01/14 15:51:56;;;;;;;130.73;53.37;;;;;;;0.73;84.87;100660.26;4927393;58;1136279;-93
2021/01/14 15:57:01;;;;;;;123.27;48.40;;;;;;;0.74;85.03;100659.36;5037519;57;1140879;-93
2021/01/14 16:02:13;;;;;;;139.80;49.97;;;;;;;0.76;85.40;100660.16;5026091;58;1140455;-91
2021/01/14 16:07:19;;;;;;;107.83;36.97;;;;;;;0.80;85.20;100663.02;5024050;57;1140610;-92
2021/01/14 16:12:25;;;;;;;117.67;47.40;;;;;;;0.82;85.17;100669.48;5109502;58;1138411;-91
2021/01/14 16:17:30;;;;;;;111.93;47.23;;;;;;;0.81;85.07;100678.19;5128703;58;21138;-91
2021/01/14 16:22:36;;;;;;;45.53;19.57;;;;;;;0.81;85.00;100688.16;5128861;58;21154;-91
2021/01/14 16:27:41;;;;;;;92.27;37.93;;;;;;;0.84;84.81;100689.36;5128593;58;21229;-91
2021/01/14 16:32:59;;;;;;;56.60;22.80;;;;;;;0.75;84.75;100694.89;5128417;58;21158;-90
2021/01/14 16:44:48;;;;;;;24.90;11.50;;;;;;;0.61;84.43;100706.23;5099772;57;21123;-90
2021/01/14 16:49:54;;;;;;;76.47;31.13;;;;;;;0.52;84.57;100711.72;5021448;58;21144;-89
2021/01/14 16:54:59;;;;;;;62.57;25.93;;;;;;;0.45;84.36;100721.95;4868305;60;21463;-90
2021/01/14 17:00:06;;;;;;;45.97;21.73;;;;;;;0.43;84.76;100724.60;5056607;58;21155;-90
2021/01/14 17:05:12;;;;;;;43.33;21.17;;;;;;;0.43;84.79;100736.31;5044974;58;21142;-89
2021/01/14 17:10:18;;;;;;;51.70;22.37;;;;;;;0.43;84.47;100739.36;5053939;58;21166;-89
2021/01/14 17:15:24;;;;;;;50.83;22.27;;;;;;;0.42;84.70;100740.26;5026729;59;21352;-90
2021/01/14 17:20:29;;;;;;;41.60;18.33;;;;;;;0.43;84.60;100738.06;5024131;58;21231;-90
2021/01/14 17:25:35;;;;;;;54.83;22.97;;;;;;;0.42;84.31;100741.56;5019496;59;21162;-91
2021/01/14 17:30:43;;;;;;;42.20;20.47;;;;;;;0.38;84.22;100751.66;5020102;58;21186;-90
2021/01/14 17:35:49;;;;;;;47.80;21.57;;;;;;;0.28;83.94;100753.27;5021085;59;21130;-89
2021/01/14 17:40:54;;;;;;;30.70;13.73;;;;;;;0.27;84.17;100761.11;4939954;60;21473;-90
2021/01/14 17:46:00;;;;;;;35.30;16.20;;;;;;;0.20;83.82;100761.73;5027744;58;21210;-91
2021/01/14 17:51:07;;;;;;;34.90;17.10;;;;;;;0.12;83.63;100778.05;5028000;59;21162;-90
2021/01/14 17:56:18;;;;;;;24.80;12.43;;;;;;;0.08;84.01;100772.52;5046356;58;21135;-90
2021/01/14 18:01:24;;;;;;;40.33;18.48;;;;;;;0.08;83.70;100784.67;4969651;58;1134586;-93
2021/01/14 18:06:31;;;;;;;45.37;23.27;;;;;;;0.04;84.10;100794.31;4896369;59;1138270;-90
2021/01/14 18:11:37;;;;;;;70.70;34.57;;;;;;;0.10;84.26;100800.64;4958297;58;1138473;-90
2021/01/14 18:16:43;;;;;;;43.27;21.07;;;;;;;0.06;83.76;100812.02;4922792;58;1138387;-91
2021/01/14 18:21:49;;;;;;;35.80;16.60;;;;;;;0.07;83.67;100818.92;5012645;57;1138717;-90
2021/01/14 18:26:55;;;;;;;48.45;22.93;;;;;;;0.08;83.71;100817.18;4939557;57;1138286;-90
2021/01/14 18:32:05;;;;;;;54.73;25.87;;;;;;;0.06;83.80;100821.13;5010111;57;1138534;-90
2021/01/14 18:37:10;;;;;;;113.90;44.00;;;;;;;0.08;83.69;100825.83;4988499;57;1138797;-91
2021/01/14 18:42:16;;;;;;;110.43;46.93;;;;;;;0.13;83.98;100826.56;4970038;57;1140843;-91
2021/01/14 18:47:31;;;;;;;103.63;36.77;;;;;;;0.21;84.06;100823.71;5047775;57;1140532;-92
2021/01/14 18:52:36;;;;;;;108.83;41.80;;;;;;;0.28;83.89;100827.84;5027517;57;1140670;-91
2021/01/14 18:57:42;;;;;;;112.53;45.97;;;;;;;0.29;83.55;100831.70;5045125;58;1140319;-92
2021/01/14 19:02:51;;;;;;;125.00;53.83;;;;;;;0.20;83.09;100821.56;5029549;57;1140389;-90
2021/01/14 19:07:57;;;;;;;123.33;43.70;;;;;;;0.18;82.83;100823.80;5014488;58;1140664;-90
2021/01/14 19:13:02;;;;;;;71.23;29.47;;;;;;;0.13;82.63;100818.76;5053542;57;1141326;-91
2021/01/14 19:18:08;;;;;;;122.40;43.73;;;;;;;0.15;83.01;100822.61;4972884;58;1138459;-91
2021/01/14 19:23:14;;;;;;;67.40;29.00;;;;;;;0.16;82.90;100826.44;5043336;57;1140548;-90
2021/01/14 19:28:20;;;;;;;96.37;40.80;;;;;;;0.17;82.81;100842.90;5027541;57;1138526;-91
2021/01/14 19:33:25;;;;;;;253.95;81.22;;;;;;;0.02;82.40;100830.34;5013222;57;1138526;-91
2021/01/14 19:38:31;;;;;;;580.45;153.40;;;;;;;-0.08;82.42;100829.77;5012577;57;1140702;-90
2021/01/14 19:43:40;;;;;;;168.07;53.52;;;;;;;-0.18;82.36;100841.34;5002821;58;1145181;-90
2021/01/14 19:48:45;;;;;;;93.27;31.87;;;;;;;-0.33;82.31;100845.67;4923132;57;1142489;-90
2021/01/14 19:53:51;;;;;;;85.23;34.17;;;;;;;-0.37;82.74;100856.59;4832496;59;1140449;-89
2021/01/14 19:58:57;;;;;;;115.07;39.77;;;;;;;-0.40;83.22;100857.52;4873374;58;1140361;-90
2021/01/14 20:04:03;;;;;;;159.87;60.53;;;;;;;-0.30;83.41;100865.05;4873609;58;1142639;-89
2021/01/14 20:09:11;;;;;;;143.77;55.40;;;;;;;-0.27;83.43;100858.48;4906788;58;1142503;-89
2021/01/14 20:14:16;;;;;;;114.40;42.03;;;;;;;-0.24;83.39;100863.15;4937383;58;1142563;-90
2021/01/14 20:19:21;;;;;;;119.25;44.90;;;;;;;-0.24;83.07;100866.20;4903361;58;1142457;-90
2021/01/14 20:24:29;;;;;;;93.03;36.10;;;;;;;-0.29;83.08;100862.41;4927630;58;1142959;-90
2021/01/14 20:29:35;;;;;;;35.93;16.33;;;;;;;-0.31;83.17;100860.78;4915272;58;1140443;-89
2021/01/14 20:34:42;;;;;;;38.83;16.80;;;;;;;-0.36;83.05;100859.59;4872463;58;1140737;-89
2021/01/14 20:39:50;;;;;;;31.97;14.80;;;;;;;-0.43;82.96;100849.80;4907405;58;1140713;-89
2021/01/14 20:44:56;;;;;;;34.53;14.17;;;;;;;-0.50;82.91;100849.58;4879229;58;1140841;-89
2021/01/14 20:50:02;;;;;;;38.50;15.63;;;;;;;-0.53;83.06;100863.95;4894104;58;1140392;-89
2021/01/14 20:55:09;;;;;;;35.20;16.63;;;;;;;-0.58;83.07;100864.95;4867895;58;1140347;-89
2021/01/14 21:00:15;;;;;;;41.43;19.67;;;;;;;-0.68;83.00;100863.05;4910575;58;1140484;-89
2021/01/14 21:05:21;;;;;;;61.92;24.60;;;;;;;-0.75;83.13;100858.45;4911475;58;1140954;-90
2021/01/14 21:10:27;;;;;;;50.53;22.77;;;;;;;-0.81;83.33;100852.58;4830446;59;1140375;-90
2021/01/14 21:15:34;;;;;;;52.53;21.33;;;;;;;-0.80;83.38;100861.63;4898869;59;1140537;-89
2021/01/14 21:20:40;;;;;;;53.43;24.70;;;;;;;-0.74;83.55;100867.09;4893440;58;1140434;-90
2021/01/14 21:25:47;;;;;;;56.70;24.77;;;;;;;-0.72;83.65;100857.52;4918616;58;1140460;-90
2021/01/14 21:30:52;;;;;;;57.23;24.53;;;;;;;-0.70;83.62;100855.73;4885911;58;1140864;-90
2021/01/14 21:35:58;;;;;;;51.17;23.53;;;;;;;-0.64;83.58;100850.84;4892161;59;1140443;-89
2021/01/14 21:41:04;;;;;;;55.93;26.47;;;;;;;-0.55;83.88;100863.58;4908107;58;1140613;-90
2021/01/14 21:46:09;;;;;;;87.07;38.30;;;;;;;-0.57;83.60;100872.70;4876662;58;1140630;-90
2021/01/14 21:51:15;;;;;;;81.83;31.87;;;;;;;-0.50;84.11;100884.66;4897110;58;1140685;-89
2021/01/14 21:56:41;;;;;;;79.12;30.23;;;;;;;-0.44;83.91;100884.47;5008430;57;1140977;-90
2021/01/14 22:01:47;;;;;;;39.23;15.90;;;;;;;-0.48;83.85;100882.02;5018271;58;1140377;-90
2021/01/14 22:06:52;;;;;;;79.07;33.33;;;;;;;-0.52;84.11;100881.69;5021845;57;1140473;-90
2021/01/14 22:11:58;;;;;;;51.37;23.87;;;;;;;-0.55;84.40;100877.86;4998463;57;1141009;-90
2021/01/14 22:17:04;;;;;;;68.67;29.83;;;;;;;-0.53;84.60;100875.63;5086507;57;1138443;-90
2021/01/14 22:22:09;;;;;;;62.50;26.70;;;;;;;-0.50;84.77;100878.61;5074049;57;1140483;-90
2021/01/14 22:27:14;;;;;;;76.15;33.70;;;;;;;-0.48;84.91;100884.17;4962186;57;1140728;-90
2021/01/14 22:32:20;;;;;;;67.40;29.20;;;;;;;-0.46;85.06;100884.95;5056420;57;1140252;-89
2021/01/14 22:37:25;;;;;;;49.37;24.40;;;;;;;-0.44;85.15;100887.07;5026120;57;1140615;-89
2021/01/14 22:42:31;;;;;;;31.97;15.93;;;;;;;-0.43;85.37;100893.12;5025898;57;1140660;-90
2021/01/14 22:47:38;;;;;;;52.93;23.83;;;;;;;-0.34;85.46;100891.59;5050439;57;1140474;-90
2021/01/14 22:52:44;;;;;;;60.83;26.73;;;;;;;-0.31;85.52;100894.56;5014899;57;1140549;-90
2021/01/14 22:57:50;;;;;;;51.40;24.33;;;;;;;-0.22;85.39;100895.59;4999124;57;1140349;-90
2021/01/14 23:02:56;;;;;;;36.53;16.90;;;;;;;-0.21;85.39;100893.41;5057531;57;1140453;-90
2021/01/14 23:08:02;;;;;;;43.77;20.33;;;;;;;-0.20;85.31;100893.37;4999538;57;1140423;-89
2021/01/14 23:13:07;;;;;;;55.53;26.60;;;;;;;-0.24;85.19;100897.38;5058094;57;1138429;-90
2021/01/14 23:18:13;;;;;;;36.67;17.63;;;;;;;-0.24;85.32;100885.24;5039023;57;1140562;-90
2021/01/14 23:23:18;;;;;;;39.87;20.27;;;;;;;-0.22;85.29;100881.30;5001062;58;1140583;-89
2021/01/14 23:28:24;;;;;;;33.53;16.33;;;;;;;-0.24;85.29;100879.19;5001062;57;1140412;-90
2021/01/14 23:33:29;;;;;;;21.80;11.78;;;;;;;-0.22;85.17;100894.30;5001111;57;1140541;-90